createdAt,value
2022-09-05T00:00:40.468Z,10.10
2022-09-05T00:01:40.393Z,10.10
2022-09-05T00:02:41.855Z,9.90
2022-09-05T00:03:41.945Z,10.80
2022-09-05T00:04:40.469Z,10.30
2022-09-05T00:05:44.270Z,10.60
2022-09-05T00:06:41.417Z,11.00
2022-09-05T00:07:59.163Z,12.30
2022-09-05T00:08:41.380Z,12.70
2022-09-05T00:09:40.404Z,11.00
2022-09-05T00:11:08.545Z,10.40
2022-09-05T00:11:43.891Z,9.80
2022-09-05T00:12:41.359Z,9.60
2022-09-05T00:13:40.435Z,9.40
2022-09-05T00:15:16.647Z,10.60
2022-09-05T00:15:41.441Z,10.20
2022-09-05T00:16:40.418Z,9.90
2022-09-05T00:19:05.231Z,10.70
2022-09-05T00:24:18.692Z,10.50
2022-09-05T00:24:19.420Z,12.20
2022-09-05T00:24:25.378Z,12.20
2022-09-05T00:24:25.765Z,13.40
2022-09-05T00:24:25.995Z,11.20
2022-09-05T00:24:27.147Z,13.40
2022-09-05T00:25:00.962Z,12.70
2022-09-05T00:25:42.325Z,15.30
2022-09-05T00:26:43.891Z,14.30
2022-09-05T00:27:41.337Z,14.20
2022-09-05T00:28:41.325Z,13.70
2022-09-05T00:31:02.485Z,12.00
2022-09-05T00:31:50.995Z,12.50
2022-09-05T00:31:55.384Z,11.00
2022-09-05T00:32:41.289Z,12.10
2022-09-05T00:33:40.184Z,11.50
2022-09-05T00:34:47.225Z,9.70
2022-09-05T00:35:41.411Z,9.80
2022-09-05T00:36:40.209Z,11.00
2022-09-05T00:37:40.168Z,10.20
2022-09-05T00:38:40.307Z,9.50
2022-09-05T00:39:40.654Z,9.50
2022-09-05T00:40:41.139Z,10.00
2022-09-05T00:41:40.301Z,10.80
2022-09-05T00:42:40.274Z,11.70
2022-09-05T00:43:40.600Z,9.90
2022-09-05T00:44:40.208Z,9.50
2022-09-05T00:45:40.220Z,9.60
2022-09-05T00:46:41.190Z,10.20
2022-09-05T00:47:40.232Z,10.40
2022-09-05T00:48:41.163Z,10.30
2022-09-05T00:49:41.100Z,11.30
2022-09-05T00:50:41.209Z,10.40
2022-09-05T00:51:40.134Z,11.50
2022-09-05T00:52:40.148Z,10.50
2022-09-05T00:53:40.236Z,10.10
2022-09-05T00:54:41.168Z,10.80
2022-09-05T00:55:40.035Z,9.50
2022-09-05T00:56:40.044Z,9.60
2022-09-05T00:57:40.057Z,10.10
2022-09-05T00:58:40.019Z,10.20
2022-09-05T00:59:40.091Z,10.00
2022-09-05T01:00:40.019Z,10.30
2022-09-05T01:01:40.136Z,10.40
2022-09-05T01:02:48.452Z,9.60
2022-09-05T01:03:40.986Z,9.00
2022-09-05T01:04:39.965Z,9.20
2022-09-05T01:05:40.030Z,10.30
2022-09-05T01:06:40.071Z,11.20
2022-09-05T01:07:42.791Z,10.90
2022-09-05T01:08:40.979Z,13.70
2022-09-05T01:09:40.048Z,11.30
2022-09-05T01:10:40.068Z,15.90
2022-09-05T01:11:40.049Z,11.10
2022-09-05T01:12:40.060Z,15.00
2022-09-05T01:13:40.073Z,17.30
2022-09-05T01:14:40.033Z,16.00
2022-09-05T01:15:40.091Z,15.60
2022-09-05T01:16:40.052Z,13.90
2022-09-05T01:17:41.007Z,12.10
2022-09-05T01:18:39.994Z,13.40
2022-09-05T01:19:39.982Z,11.00
2022-09-05T01:20:39.950Z,10.60
2022-09-05T01:21:40.784Z,11.30
2022-09-05T01:22:40.906Z,11.40
2022-09-05T01:23:39.880Z,16.20
2022-09-05T01:24:40.728Z,13.00
2022-09-05T01:25:40.404Z,15.50
2022-09-05T01:26:40.867Z,13.40
2022-09-05T01:28:23.635Z,11.40
2022-09-05T01:29:13.919Z,12.40
2022-09-05T01:29:40.873Z,10.80
2022-09-05T01:30:39.865Z,10.50
2022-09-05T01:31:39.860Z,9.30
2022-09-05T01:32:39.849Z,9.70
2022-09-05T01:33:39.909Z,10.30
2022-09-05T01:34:39.896Z,10.80
2022-09-05T01:35:39.904Z,12.10
2022-09-05T01:36:39.853Z,11.40
2022-09-05T01:37:39.871Z,10.70
2022-09-05T01:38:39.824Z,11.30
2022-09-05T01:40:14.413Z,10.80
2022-09-05T01:40:40.762Z,12.10
2022-09-05T01:41:39.808Z,16.30
2022-09-05T01:42:39.792Z,15.60
2022-09-05T01:43:39.813Z,15.20
2022-09-05T01:44:39.809Z,13.80
2022-09-05T01:45:40.104Z,13.80
2022-09-05T01:46:39.757Z,19.70
2022-09-05T01:47:39.677Z,24.70
2022-09-05T01:48:39.682Z,21.20
2022-09-05T01:49:39.654Z,20.10
2022-09-05T01:50:39.765Z,19.10
2022-09-05T01:51:39.641Z,18.30
2022-09-05T01:52:45.052Z,18.80
2022-09-05T01:53:40.675Z,15.60
2022-09-05T01:54:39.723Z,15.10
2022-09-05T01:56:04.619Z,17.30
2022-09-05T01:56:40.643Z,19.10
2022-09-05T01:57:39.704Z,14.90
2022-09-05T01:58:39.734Z,12.20
2022-09-05T01:59:39.687Z,11.70
2022-09-05T02:00:39.749Z,14.20
2022-09-05T02:01:39.734Z,14.70
2022-09-05T02:02:39.773Z,21.50
2022-09-05T02:03:39.655Z,22.00
2022-09-05T02:04:39.649Z,23.10
2022-09-05T02:05:48.445Z,21.50
2022-09-05T02:06:41.855Z,21.80
2022-09-05T02:07:39.617Z,22.10
2022-09-05T02:08:39.627Z,20.20
2022-09-05T02:09:40.063Z,14.80
2022-09-05T02:10:39.544Z,21.70
2022-09-05T02:11:39.589Z,27.30
2022-09-05T02:12:39.534Z,25.00
2022-09-05T02:13:39.503Z,29.10
2022-09-05T02:14:39.489Z,26.10
2022-09-05T02:15:39.536Z,25.40
2022-09-05T02:16:39.534Z,25.20
2022-09-05T02:17:51.055Z,22.40
2022-09-05T02:18:40.488Z,20.90
2022-09-05T02:19:39.439Z,22.80
2022-09-05T02:20:39.458Z,20.70
2022-09-05T02:21:56.626Z,22.10
2022-09-05T02:22:40.445Z,22.90
2022-09-05T02:23:41.733Z,22.20
2022-09-05T02:24:39.442Z,15.50
2022-09-05T02:26:02.548Z,20.50
2022-09-05T02:26:40.430Z,29.60
2022-09-05T02:28:05.678Z,24.80
2022-09-05T02:28:40.400Z,20.50
2022-09-05T02:29:39.472Z,22.30
2022-09-05T02:30:47.444Z,31.60
2022-09-05T02:31:40.428Z,24.40
2022-09-05T02:32:43.077Z,24.20
2022-09-05T02:33:40.441Z,23.80
2022-09-05T02:34:39.434Z,24.80
2022-09-05T02:35:39.424Z,21.20
2022-09-05T02:36:39.426Z,23.00
2022-09-05T02:38:35.099Z,21.60
2022-09-05T02:40:59.890Z,15.00
2022-09-05T02:42:40.494Z,21.30
2022-09-05T02:45:02.776Z,15.70
2022-09-05T02:45:07.733Z,19.00
2022-09-05T02:45:11.902Z,22.70
2022-09-05T02:45:14.354Z,22.30
2022-09-05T02:45:17.179Z,25.50
2022-09-05T02:45:40.335Z,24.80
2022-09-05T02:46:39.360Z,23.20
2022-09-05T02:47:39.286Z,21.20
2022-09-05T02:48:39.281Z,16.10
2022-09-05T02:53:12.223Z,11.30
2022-09-05T02:54:03.422Z,12.60
2022-09-05T02:57:28.215Z,11.30
2022-09-05T02:57:33.269Z,11.80
2022-09-05T02:57:37.222Z,15.50
2022-09-05T02:57:38.341Z,11.60
2022-09-05T02:57:40.980Z,13.20
2022-09-05T02:57:43.272Z,19.40
2022-09-05T02:58:05.801Z,14.90
2022-09-05T02:59:08.164Z,20.50
2022-09-05T02:59:41.204Z,18.90
2022-09-05T03:00:39.173Z,19.30
2022-09-05T03:01:40.025Z,22.00
2022-09-05T03:02:39.307Z,21.80
2022-09-05T03:03:39.463Z,20.70
2022-09-05T03:04:39.265Z,23.30
2022-09-05T03:05:39.238Z,25.40
2022-09-05T03:06:39.626Z,24.60
2022-09-05T03:07:39.266Z,26.30
2022-09-05T03:08:39.237Z,24.30
2022-09-05T03:09:39.305Z,21.90
2022-09-05T03:10:53.485Z,27.60
2022-09-05T03:11:40.133Z,21.00
2022-09-05T03:12:39.171Z,21.50
2022-09-05T03:13:48.782Z,22.60
2022-09-05T03:14:40.151Z,23.90
2022-09-05T03:15:39.157Z,24.30
2022-09-05T03:16:47.072Z,23.80
2022-09-05T03:17:40.178Z,21.90
2022-09-05T03:18:39.176Z,22.80
2022-09-05T03:19:46.235Z,21.30
2022-09-05T03:20:40.134Z,23.20
2022-09-05T03:21:39.107Z,26.00
2022-09-05T03:22:39.112Z,25.40
2022-09-05T03:23:39.129Z,22.60
2022-09-05T03:24:39.117Z,22.90
2022-09-05T03:25:39.173Z,21.50
2022-09-05T03:26:39.077Z,20.20
2022-09-05T03:27:38.980Z,21.80
2022-09-05T03:28:38.973Z,21.90
2022-09-05T03:29:39.008Z,20.20
2022-09-05T03:30:39.051Z,21.90
2022-09-05T03:31:38.941Z,26.90
2022-09-05T03:32:40.303Z,22.80
2022-09-05T03:33:38.960Z,32.50
2022-09-05T03:34:38.939Z,22.30
2022-09-05T03:35:38.975Z,25.90
2022-09-05T03:36:38.936Z,22.60
2022-09-05T03:37:38.921Z,25.20
2022-09-05T03:38:39.018Z,22.60
2022-09-05T03:39:39.045Z,24.40
2022-09-05T03:40:39.027Z,24.40
2022-09-05T03:41:40.727Z,25.70
2022-09-05T03:42:38.993Z,29.20
2022-09-05T03:43:38.947Z,24.20
2022-09-05T03:44:38.972Z,25.30
2022-09-05T03:45:38.968Z,28.90
2022-09-05T03:46:38.997Z,23.80
2022-09-05T03:47:39.645Z,27.10
2022-09-05T03:48:39.024Z,27.60
2022-09-05T03:52:19.974Z,23.90
2022-09-05T03:52:58.424Z,25.80
2022-09-05T03:54:39.901Z,26.10
2022-09-05T03:57:05.076Z,26.70
2022-09-05T03:57:10.483Z,24.40
2022-09-05T03:57:14.133Z,24.20
2022-09-05T03:57:14.631Z,27.80
2022-09-05T03:57:22.993Z,18.20
2022-09-05T03:57:42.684Z,17.40
2022-09-05T03:58:56.443Z,17.90
2022-09-05T03:59:40.797Z,17.90
2022-09-05T04:00:38.773Z,22.00
2022-09-05T04:03:17.869Z,21.80
2022-09-05T04:07:06.314Z,19.70
2022-09-05T04:08:07.675Z,21.00
2022-09-05T04:08:15.723Z,19.20
2022-09-05T04:08:18.709Z,16.50
2022-09-05T04:08:29.747Z,16.80
2022-09-05T04:08:31.608Z,16.40
2022-09-05T04:08:43.020Z,16.30
2022-09-05T04:09:50.514Z,16.10
2022-09-05T04:10:40.826Z,16.10
2022-09-05T04:11:38.772Z,17.20
2022-09-05T04:12:38.796Z,17.70
2022-09-05T04:13:38.770Z,22.90
2022-09-05T04:14:38.781Z,25.60
2022-09-05T04:15:38.771Z,25.00
2022-09-05T04:16:38.862Z,25.80
2022-09-05T04:17:38.819Z,23.60
2022-09-05T04:18:38.789Z,25.80
2022-09-05T04:19:38.734Z,26.10
2022-09-05T04:20:40.593Z,29.10
2022-09-05T04:21:39.711Z,27.10
2022-09-05T04:22:38.637Z,27.70
2022-09-05T04:23:38.615Z,31.00
2022-09-05T04:24:39.577Z,27.70
2022-09-05T04:25:38.630Z,28.70
2022-09-05T04:26:38.667Z,28.90
2022-09-05T04:27:38.552Z,27.80
2022-09-05T04:28:41.285Z,26.70
2022-09-05T04:29:38.566Z,25.70
2022-09-05T04:30:40.448Z,28.40
2022-09-05T04:31:38.653Z,26.00
2022-09-05T04:32:38.603Z,25.00
2022-09-05T04:33:38.640Z,26.20
2022-09-05T04:34:38.602Z,26.40
2022-09-05T04:35:38.628Z,27.10
2022-09-05T04:36:38.632Z,16.90
2022-09-05T04:37:48.394Z,17.80
2022-09-05T04:38:39.544Z,18.20
2022-09-05T04:39:38.638Z,22.40
2022-09-05T04:40:38.547Z,19.20
2022-09-05T04:41:39.855Z,16.30
2022-09-05T04:42:38.526Z,18.80
2022-09-05T04:43:38.587Z,23.90
2022-09-05T04:44:38.537Z,24.70
2022-09-05T04:45:39.586Z,25.60
2022-09-05T04:46:47.395Z,26.50
2022-09-05T04:47:39.461Z,28.70
2022-09-05T04:48:38.419Z,29.30
2022-09-05T04:49:38.427Z,26.80
2022-09-05T04:50:38.421Z,27.50
2022-09-05T04:51:38.425Z,25.90
2022-09-05T04:52:38.478Z,40.00
2022-09-05T04:53:38.485Z,27.40
2022-09-05T04:54:38.521Z,28.10
2022-09-05T04:55:38.462Z,28.20
2022-09-05T04:56:38.400Z,26.70
2022-09-05T04:57:38.484Z,26.40
2022-09-05T04:59:38.950Z,28.60
2022-09-05T05:02:16.425Z,26.70
2022-09-05T05:06:00.542Z,28.00
2022-09-05T05:06:08.550Z,28.10
2022-09-05T05:06:10.498Z,27.00
2022-09-05T05:06:11.537Z,30.20
2022-09-05T05:06:13.103Z,32.10
2022-09-05T05:06:18.911Z,25.60
2022-09-05T05:06:46.047Z,28.90
2022-09-05T05:07:40.503Z,31.60
2022-09-05T05:08:39.596Z,31.60
2022-09-05T05:09:38.294Z,26.40
2022-09-05T05:14:17.547Z,29.20
2022-09-05T05:17:59.704Z,23.80
2022-09-05T05:18:03.805Z,21.80
2022-09-05T05:18:07.466Z,23.90
2022-09-05T05:18:07.630Z,25.30
2022-09-05T05:18:09.767Z,24.60
2022-09-05T05:18:13.105Z,29.80
2022-09-05T05:18:15.974Z,26.90
2022-09-05T05:18:53.245Z,24.40
2022-09-05T05:19:40.239Z,26.20
2022-09-05T05:20:42.607Z,25.30
2022-09-05T05:21:39.383Z,24.70
2022-09-05T05:22:38.298Z,23.70
2022-09-05T05:23:38.336Z,24.00
2022-09-05T05:24:38.317Z,23.80
2022-09-05T05:25:38.356Z,21.90
2022-09-05T05:26:38.337Z,15.80
2022-09-05T05:27:38.348Z,16.20
2022-09-05T05:28:38.296Z,16.80
2022-09-05T05:29:38.241Z,18.80
2022-09-05T05:30:38.222Z,18.80
2022-09-05T05:31:38.191Z,18.00
2022-09-05T05:32:45.134Z,22.10
2022-09-05T05:33:39.173Z,20.00
2022-09-05T05:34:38.112Z,19.10
2022-09-05T05:35:44.601Z,21.60
2022-09-05T05:36:39.107Z,18.00
2022-09-05T05:37:38.095Z,17.10
2022-09-05T05:38:38.206Z,22.40
2022-09-05T05:39:38.242Z,19.50
2022-09-05T05:40:38.245Z,16.40
2022-09-05T05:41:39.067Z,18.00
2022-09-05T05:42:38.226Z,17.70
2022-09-05T05:43:39.366Z,16.20
2022-09-05T05:44:38.200Z,15.90
2022-09-05T07:16:59.629Z,27.50
2022-09-05T07:18:10.480Z,15.70
2022-09-05T07:19:03.385Z,13.60
2022-09-05T07:20:01.826Z,12.60
2022-09-05T07:21:17.766Z,10.90
2022-09-05T07:22:01.734Z,10.20
2022-09-05T07:23:47.717Z,10.60
2022-09-05T07:24:08.689Z,9.50
2022-09-05T07:25:01.762Z,9.10
2022-09-05T07:26:00.787Z,8.30
2022-09-05T07:27:00.676Z,8.60
2022-09-05T07:28:23.552Z,9.40
2022-09-05T07:29:01.587Z,9.30
2022-09-05T07:30:01.985Z,8.60
2022-09-05T07:31:00.639Z,8.50
2022-09-05T07:32:00.726Z,9.30
2022-09-05T07:33:00.566Z,8.10
2022-09-05T07:34:00.593Z,8.40
2022-09-05T07:35:00.575Z,8.60
2022-09-05T07:36:00.582Z,8.60
2022-09-05T07:37:14.316Z,8.40
2022-09-05T07:38:01.568Z,7.30
2022-09-05T07:39:25.139Z,7.50
2022-09-05T07:40:25.021Z,7.20
2022-09-05T07:41:01.578Z,7.00
2022-09-05T07:42:00.692Z,7.00
2022-09-05T07:43:09.848Z,6.60
2022-09-05T07:44:01.514Z,6.60
2022-09-05T07:45:00.657Z,6.50
2022-09-05T07:46:00.643Z,6.70
2022-09-05T07:47:00.587Z,7.10
2022-09-05T07:48:00.624Z,6.40
2022-09-05T07:49:00.585Z,6.40
2022-09-05T07:53:00.540Z,6.40
2022-09-05T07:56:46.111Z,6.60
2022-09-05T07:56:56.233Z,6.00
2022-09-05T07:57:01.326Z,6.10
2022-09-05T07:57:03.980Z,6.30
2022-09-05T07:57:04.916Z,5.80
2022-09-05T07:57:10.576Z,5.60
2022-09-05T07:58:02.656Z,5.80
2022-09-05T07:59:00.418Z,6.00
2022-09-05T08:00:00.372Z,5.90
2022-09-05T08:01:00.459Z,5.80
2022-09-05T08:02:00.372Z,5.90
2022-09-05T08:03:00.868Z,5.70
2022-09-05T08:04:05.535Z,5.60
2022-09-05T08:05:01.426Z,5.50
2022-09-05T08:06:00.345Z,5.30
2022-09-05T08:07:46.139Z,5.20
2022-09-05T08:08:01.404Z,4.90
2022-09-05T08:09:21.591Z,5.20
2022-09-05T08:10:09.220Z,5.60
2022-09-05T08:11:23.967Z,5.10
2022-09-05T08:12:09.563Z,5.30
2022-09-05T08:13:24.120Z,5.00
2022-09-05T08:14:38.346Z,5.30
2022-09-05T08:15:01.265Z,5.10
2022-09-05T08:16:10.977Z,5.10
2022-09-05T08:17:01.328Z,5.10
2022-09-05T08:18:00.500Z,5.20
2022-09-05T08:19:00.404Z,4.70
2022-09-05T08:20:08.287Z,4.70
2022-09-05T08:21:01.343Z,4.70
2022-09-05T08:22:01.705Z,5.10
2022-09-05T08:23:00.332Z,4.60
2022-09-05T08:24:00.600Z,4.50
2022-09-05T08:25:01.377Z,4.50
2022-09-05T08:26:00.362Z,4.90
2022-09-05T08:27:00.301Z,4.90
2022-09-05T08:28:00.265Z,4.90
2022-09-05T08:29:00.197Z,4.80
2022-09-05T08:30:26.945Z,4.30
2022-09-05T08:31:01.372Z,4.70
2022-09-05T08:32:00.288Z,5.00
2022-09-05T08:33:11.134Z,5.10
2022-09-05T08:34:01.152Z,4.60
2022-09-05T08:35:00.180Z,4.60
2022-09-05T08:36:01.223Z,4.40
2022-09-05T08:37:00.128Z,4.60
2022-09-05T08:38:00.248Z,4.70
2022-09-05T08:39:00.301Z,4.40
2022-09-05T08:40:11.722Z,4.80
2022-09-05T08:41:01.113Z,4.10
2022-09-05T08:42:05.854Z,4.10
2022-09-05T08:46:10.159Z,4.20
2022-09-05T08:46:40.231Z,4.30
2022-09-05T08:46:41.511Z,4.20
2022-09-05T08:46:46.800Z,4.30
2022-09-05T08:47:01.548Z,4.20
2022-09-05T08:48:00.237Z,4.20
2022-09-05T08:49:02.113Z,4.40
2022-09-05T08:50:01.175Z,4.00
2022-09-05T08:51:00.189Z,4.00
2022-09-05T08:52:00.028Z,4.10
2022-09-05T08:53:00.140Z,3.70
2022-09-05T08:54:00.146Z,3.80
2022-09-05T08:55:04.363Z,3.80
2022-09-05T08:56:02.174Z,4.10
2022-09-05T08:57:00.129Z,4.20
2022-09-05T08:58:00.132Z,3.90
2022-09-05T08:59:31.546Z,4.10
2022-09-05T09:00:19.776Z,4.50
2022-09-05T09:01:04.544Z,4.90
2022-09-05T09:02:46.185Z,4.40
2022-09-05T09:03:03.953Z,4.30
2022-09-05T09:03:59.930Z,3.80
2022-09-05T09:05:02.346Z,4.00
2022-09-05T09:06:13.501Z,4.10
2022-09-05T09:07:47.554Z,4.20
2022-09-05T09:08:00.888Z,3.90
2022-09-05T09:09:05.161Z,3.90
2022-09-05T09:10:01.925Z,4.20
2022-09-05T09:10:59.890Z,3.90
2022-09-05T09:11:59.977Z,3.90
2022-09-05T09:13:00.042Z,3.70
2022-09-05T09:13:59.976Z,4.00
2022-09-05T09:14:59.987Z,4.20
2022-09-05T09:15:59.979Z,3.90
2022-09-05T09:17:00.015Z,3.80
2022-09-05T09:17:59.948Z,3.70
2022-09-05T09:19:00.961Z,3.80
2022-09-05T09:19:59.949Z,3.80
2022-09-05T09:21:00.275Z,4.00
2022-09-05T09:21:59.938Z,3.70
2022-09-05T09:22:59.994Z,3.70
2022-09-05T09:23:59.903Z,3.60
2022-09-05T09:25:15.123Z,4.00
2022-09-05T09:26:00.926Z,4.00
2022-09-05T09:27:00.069Z,3.40
2022-09-05T09:28:48.073Z,3.90
2022-09-05T09:29:00.751Z,4.00
2022-09-05T09:29:59.743Z,3.60
2022-09-05T09:30:59.881Z,3.70
2022-09-05T09:32:00.046Z,4.30
2022-09-05T09:32:59.910Z,3.30
2022-09-05T09:33:59.727Z,3.80
2022-09-05T09:34:59.863Z,3.70
2022-09-05T09:35:59.758Z,3.50
2022-09-05T09:37:00.715Z,3.40
2022-09-05T09:37:59.912Z,3.30
2022-09-05T09:39:21.603Z,3.10
2022-09-05T09:40:00.881Z,3.10
2022-09-05T09:41:02.191Z,3.40
2022-09-05T09:41:59.779Z,3.30
2022-09-05T09:42:59.765Z,3.40
2022-09-05T09:43:59.816Z,3.20
2022-09-05T09:44:59.745Z,3.50
2022-09-05T09:46:00.705Z,3.60
2022-09-05T09:47:00.288Z,3.80
2022-09-05T09:47:59.781Z,3.10
2022-09-05T09:48:59.793Z,3.20
2022-09-05T09:49:59.837Z,3.30
2022-09-05T09:51:00.676Z,3.30
2022-09-05T09:52:00.739Z,3.30
2022-09-05T09:52:59.611Z,3.40
2022-09-05T09:53:59.575Z,3.00
2022-09-05T09:54:59.746Z,3.10
2022-09-05T09:55:59.591Z,3.00
2022-09-05T09:56:59.565Z,3.00
2022-09-05T09:57:59.552Z,3.10
2022-09-05T09:58:59.565Z,3.10
2022-09-05T09:59:59.703Z,3.10
2022-09-05T10:00:59.662Z,2.90
2022-09-05T10:02:12.877Z,2.50
2022-09-05T10:06:28.815Z,3.10
2022-09-05T10:10:34.682Z,3.00
2022-09-05T10:10:37.915Z,3.00
2022-09-05T10:10:39.121Z,2.50
2022-09-05T10:10:45.167Z,2.80
2022-09-05T10:10:47.754Z,2.80
2022-09-05T10:10:56.268Z,3.00
2022-09-05T10:11:00.445Z,3.00
2022-09-05T10:11:37.579Z,2.70
2022-09-05T10:12:02.430Z,2.50
2022-09-05T10:13:08.445Z,2.90
2022-09-05T10:14:00.580Z,3.00
2022-09-05T10:15:00.356Z,2.80
2022-09-05T10:16:00.944Z,2.90
2022-09-05T10:17:00.423Z,2.50
2022-09-05T10:17:59.420Z,2.70
2022-09-05T10:18:59.394Z,3.10
2022-09-05T10:20:09.477Z,2.50
2022-09-05T10:21:15.114Z,2.80
2022-09-05T10:23:01.383Z,2.60
2022-09-05T10:23:59.384Z,3.10
2022-09-05T10:24:59.471Z,2.70
2022-09-05T10:26:01.882Z,2.70
2022-09-05T10:27:00.535Z,2.70
2022-09-05T10:27:59.528Z,2.70
2022-09-05T10:29:11.780Z,2.90
2022-09-05T10:30:00.358Z,2.50
2022-09-05T10:33:10.500Z,2.70
2022-09-05T10:33:36.813Z,3.40
2022-09-05T10:35:09.189Z,2.60
2022-09-05T10:35:14.945Z,2.70
2022-09-05T10:35:19.762Z,2.70
2022-09-05T10:36:00.377Z,2.50
2022-09-05T10:36:59.356Z,2.70
2022-09-05T10:37:59.276Z,2.40
2022-09-05T10:38:59.389Z,2.80
2022-09-05T10:39:59.440Z,2.60
2022-09-05T10:41:21.642Z,2.50
2022-09-05T10:42:03.267Z,2.40
2022-09-05T10:43:01.439Z,2.50
2022-09-05T10:43:59.263Z,2.50
2022-09-05T10:44:59.365Z,2.70
2022-09-05T10:45:59.382Z,2.50
2022-09-05T10:46:59.441Z,2.70
2022-09-05T10:48:08.425Z,2.30
2022-09-05T10:49:00.221Z,2.20
2022-09-05T10:49:59.343Z,2.40
2022-09-05T10:50:59.682Z,2.60
2022-09-05T10:51:59.217Z,2.40
2022-09-05T10:53:00.193Z,2.30
2022-09-05T10:53:59.275Z,2.40
2022-09-05T10:55:14.962Z,2.30
2022-09-05T10:56:00.154Z,2.20
2022-09-05T10:56:59.323Z,2.60
2022-09-05T10:57:59.291Z,2.30
2022-09-05T11:00:45.808Z,2.20
2022-09-05T11:02:20.158Z,2.20
2022-09-05T11:02:22.750Z,2.20
2022-09-05T11:02:27.905Z,2.30
2022-09-05T11:03:00.160Z,2.20
2022-09-05T11:03:59.348Z,2.20
2022-09-05T11:04:59.223Z,2.30
2022-09-05T11:05:59.062Z,2.00
2022-09-05T11:07:00.090Z,2.10
2022-09-05T11:07:59.270Z,2.30
2022-09-05T11:08:59.095Z,2.30
2022-09-05T11:09:59.236Z,2.20
2022-09-05T11:10:59.261Z,2.10
2022-09-05T11:11:59.222Z,2.40
2022-09-05T11:12:59.221Z,2.20
2022-09-05T11:13:59.172Z,2.10
2022-09-05T11:14:59.220Z,2.20
2022-09-05T11:16:03.508Z,2.20
2022-09-05T11:17:00.343Z,2.40
2022-09-05T11:17:59.303Z,2.30
2022-09-05T11:18:59.397Z,2.50
2022-09-05T11:19:59.121Z,2.40
2022-09-05T11:20:59.102Z,2.20
2022-09-05T11:22:21.939Z,2.30
2022-09-05T11:23:00.292Z,2.00
2022-09-05T11:23:59.048Z,2.30
2022-09-05T11:24:59.269Z,1.90
2022-09-05T11:25:59.281Z,2.10
2022-09-05T11:27:25.518Z,2.80
2022-09-05T11:28:00.001Z,2.30
2022-09-05T11:29:00.814Z,2.00
2022-09-05T11:29:59.421Z,2.00
2022-09-05T11:30:59.196Z,2.10
2022-09-05T11:36:30.976Z,2.00
2022-09-05T11:39:08.702Z,2.40
2022-09-05T11:39:49.018Z,2.20
2022-09-05T11:39:50.663Z,2.10
2022-09-05T11:39:53.271Z,2.00
2022-09-05T11:39:53.716Z,2.30
2022-09-05T11:39:57.098Z,2.30
2022-09-05T11:40:10.748Z,2.20
2022-09-05T11:40:29.946Z,2.10
2022-09-05T11:41:08.225Z,2.10
2022-09-05T11:41:59.906Z,2.30
2022-09-05T11:42:58.882Z,2.10
2022-09-05T11:44:07.125Z,2.10
2022-09-05T11:44:59.965Z,2.10
2022-09-05T11:45:59.084Z,2.10
2022-09-05T11:46:59.032Z,1.80
2022-09-05T11:47:59.870Z,1.90
2022-09-05T11:48:59.058Z,2.00
2022-09-05T11:49:59.004Z,2.10
2022-09-05T11:50:59.074Z,2.30
2022-09-05T11:51:58.833Z,2.30
2022-09-05T11:52:58.928Z,2.10
2022-09-05T11:53:58.955Z,2.20
2022-09-05T11:54:58.915Z,2.00
2022-09-05T11:55:58.869Z,2.20
2022-09-05T11:57:20.085Z,2.00
2022-09-05T11:57:59.719Z,2.10
2022-09-05T11:58:59.745Z,2.00
2022-09-05T12:00:30.543Z,2.00
2022-09-05T12:01:43.160Z,2.30
2022-09-05T12:02:08.419Z,2.10
2022-09-05T12:03:00.729Z,2.10
2022-09-05T12:04:00.504Z,2.30
2022-09-05T12:05:49.201Z,2.00
2022-09-05T12:05:59.924Z,2.20
2022-09-05T12:06:59.478Z,2.00
2022-09-05T12:07:58.683Z,2.00
2022-09-05T12:08:58.783Z,2.00
2022-09-05T12:09:58.664Z,2.00
2022-09-05T12:10:59.223Z,1.90
2022-09-05T12:11:58.956Z,2.30
2022-09-05T12:12:58.770Z,2.20
2022-09-05T12:13:58.840Z,2.30
2022-09-05T12:14:58.759Z,2.00
2022-09-05T12:16:07.680Z,2.00
2022-09-05T12:16:59.615Z,2.20
2022-09-05T12:17:58.740Z,2.00
2022-09-05T12:19:02.794Z,2.10
2022-09-05T12:19:59.668Z,2.00
2022-09-05T12:20:58.694Z,2.30
2022-09-05T12:21:58.745Z,2.10
2022-09-05T12:22:59.727Z,2.60
2022-09-05T12:25:15.182Z,2.20
2022-09-05T12:25:26.722Z,2.20
2022-09-05T12:27:37.026Z,2.00
2022-09-05T12:27:42.269Z,2.00
2022-09-05T12:28:24.165Z,2.20
2022-09-05T12:29:32.961Z,2.20
2022-09-05T12:30:00.685Z,2.00
2022-09-05T12:31:58.845Z,2.30
2022-09-05T12:33:52.345Z,2.20
2022-09-05T12:36:03.852Z,1.80
2022-09-05T12:36:04.324Z,2.10
2022-09-05T12:36:05.574Z,2.00
2022-09-05T12:36:07.680Z,1.90
2022-09-05T12:40:15.732Z,1.90
2022-09-05T12:40:56.524Z,1.70
2022-09-05T12:41:01.085Z,1.90
2022-09-05T12:41:32.283Z,1.80
2022-09-05T12:41:36.724Z,1.80
2022-09-05T12:42:14.632Z,2.00
2022-09-05T12:44:00.687Z,1.90
2022-09-05T12:44:39.401Z,1.70
2022-09-05T12:45:00.147Z,1.80
2022-09-05T12:45:58.730Z,1.90
2022-09-05T12:46:58.535Z,1.80
2022-09-05T12:47:59.499Z,1.90
2022-09-05T12:49:01.456Z,2.30
2022-09-05T12:50:03.544Z,1.60
2022-09-05T12:50:59.408Z,1.70
2022-09-05T12:51:58.419Z,1.50
2022-09-05T12:52:58.496Z,2.00
2022-09-05T12:53:58.497Z,1.60
2022-09-05T12:54:58.491Z,1.60
2022-09-05T12:56:20.500Z,1.80
2022-09-05T12:59:55.290Z,2.50
2022-09-05T13:01:25.733Z,1.90
2022-09-05T13:02:59.269Z,1.70
2022-09-05T13:03:03.931Z,1.60
2022-09-05T13:03:06.199Z,1.80
2022-09-05T13:03:07.316Z,1.60
2022-09-05T13:03:35.897Z,1.80
2022-09-05T13:04:17.232Z,1.50
2022-09-05T13:05:01.710Z,1.60
2022-09-05T13:05:58.345Z,1.80
2022-09-05T13:06:58.403Z,1.90
2022-09-05T13:07:58.379Z,1.80
2022-09-05T13:08:59.767Z,1.70
2022-09-05T13:10:54.029Z,1.80
2022-09-05T13:14:49.836Z,1.70
2022-09-05T13:14:50.602Z,1.80
2022-09-05T13:14:52.606Z,1.80
2022-09-05T13:14:54.909Z,1.70
2022-09-05T13:15:12.322Z,1.60
2022-09-05T13:16:00.309Z,1.90
2022-09-05T13:16:58.380Z,1.70
2022-09-05T13:17:58.324Z,1.80
2022-09-05T13:18:58.366Z,1.70
2022-09-05T13:19:58.413Z,1.60
2022-09-05T13:20:58.260Z,1.70
2022-09-05T13:21:58.188Z,1.90
2022-09-05T13:22:58.188Z,1.60
2022-09-05T13:23:58.169Z,1.60
2022-09-05T13:24:58.247Z,1.90
2022-09-05T13:25:58.151Z,2.30
2022-09-05T13:26:58.146Z,2.70
2022-09-05T13:27:58.180Z,2.10
2022-09-05T13:29:10.774Z,1.70
2022-09-05T13:31:44.157Z,1.60
2022-09-05T13:37:04.842Z,1.60
2022-09-05T13:37:56.039Z,1.50
2022-09-05T13:38:02.954Z,1.50
2022-09-05T13:38:03.703Z,1.70
2022-09-05T13:38:06.159Z,1.50
2022-09-05T13:38:08.168Z,1.70
2022-09-05T13:38:17.892Z,1.60
2022-09-05T13:38:30.505Z,1.50
2022-09-05T13:39:01.047Z,1.50
2022-09-05T13:39:58.346Z,1.60
2022-09-05T13:40:58.371Z,1.50
2022-09-05T13:41:58.195Z,1.80
2022-09-05T13:42:58.194Z,1.70
2022-09-05T13:44:00.274Z,1.90
2022-09-05T13:44:59.046Z,1.60
2022-09-05T13:45:58.319Z,1.80
2022-09-05T13:46:59.071Z,1.80
2022-09-05T13:47:59.198Z,2.00
2022-09-05T13:50:02.093Z,1.90
2022-09-05T13:50:59.295Z,1.80
2022-09-05T13:51:58.000Z,2.00
2022-09-05T13:52:58.147Z,2.00
2022-09-05T13:53:58.120Z,1.80
2022-09-05T13:54:58.108Z,2.10
2022-09-05T13:56:03.029Z,1.80
2022-09-05T13:56:59.107Z,1.80
2022-09-05T13:57:58.058Z,1.80
2022-09-05T13:58:58.076Z,1.90
2022-09-05T13:59:58.084Z,1.80
2022-09-05T14:00:58.109Z,1.90
2022-09-05T14:02:25.445Z,2.10
2022-09-05T14:03:59.980Z,2.20
2022-09-05T14:05:08.269Z,2.00
2022-09-05T14:06:00.109Z,2.10
2022-09-05T14:07:44.081Z,1.90
2022-09-05T14:07:59.877Z,1.90
2022-09-05T14:09:59.978Z,2.00
2022-09-05T14:10:57.896Z,1.70
2022-09-05T14:11:57.932Z,1.80
2022-09-05T14:13:01.254Z,1.80
2022-09-05T14:13:59.029Z,1.70
2022-09-05T14:15:14.379Z,1.70
2022-09-05T14:15:59.875Z,1.70
2022-09-05T14:17:49.568Z,1.90
2022-09-05T14:17:59.235Z,1.70
2022-09-05T14:18:57.948Z,1.80
2022-09-05T14:19:58.044Z,1.80
2022-09-05T14:20:57.949Z,1.70
2022-09-05T14:21:57.939Z,1.70
2022-09-05T14:22:58.012Z,1.70
2022-09-05T14:23:57.942Z,2.00
2022-09-05T14:24:58.668Z,1.50
2022-09-05T14:25:57.931Z,1.60
2022-09-05T14:26:57.767Z,1.60
2022-09-05T14:27:57.783Z,1.30
2022-09-05T14:28:57.950Z,1.60
2022-09-05T14:29:57.761Z,1.30
2022-09-05T14:33:48.050Z,1.50
2022-09-05T14:37:37.099Z,1.40
2022-09-05T14:37:40.436Z,1.40
2022-09-05T14:37:45.048Z,1.60
2022-09-05T14:37:45.204Z,1.80
2022-09-05T14:37:53.124Z,1.60
2022-09-05T14:38:01.279Z,1.50
2022-09-05T14:38:09.623Z,1.40
2022-09-05T14:38:59.756Z,1.50
2022-09-05T14:39:57.910Z,1.50
2022-09-05T14:40:57.963Z,1.50
2022-09-05T14:42:07.344Z,1.60
2022-09-05T14:42:58.709Z,1.50
2022-09-05T14:43:57.927Z,1.50